Time;durP1;ratioP1;P1;durP2;ratioP2;P2;SDS_P1;SDS_P2;PMS_P1;PMS_P2;Temp;Humidity;BMP_temperature;BMP_pressure;BME280_temperature;BME280_humidity;BME280_pressure;Samples;Min_cycle;Max_cycle;Signal;HPM_P1;HPM_P2
2024/03/11 00:00:01;;;;;;;38.25;22.10;;;7.00;99.90;;;;;;5007756;28;20059;-70
2024/03/11 00:02:37;;;;;;;37.03;24.02;;;6.90;99.90;;;;;;5021587;28;20061;-70
2024/03/11 00:05:06;;;;;;;31.80;18.88;;;6.90;99.90;;;;;;5007687;28;20050;-70
2024/03/11 00:07:37;;;;;;;35.20;22.05;;;6.90;99.90;;;;;;5007842;28;20097;-70
2024/03/11 00:10:11;;;;;;;37.08;23.27;;;6.80;99.90;;;;;;5007135;28;20101;-70
2024/03/11 00:12:49;;;;;;;34.40;21.55;;;6.80;99.90;;;;;;5006909;28;20042;-70
2024/03/11 00:15:20;;;;;;;38.45;21.52;;;6.80;99.90;;;;;;5023930;28;20065;-70
2024/03/11 00:17:48;;;;;;;33.92;21.75;;;6.80;99.90;;;;;;4992789;28;20066;-70
2024/03/11 00:20:15;;;;;;;34.58;23.85;;;6.70;99.90;;;;;;4991221;28;20431;-70
2024/03/11 00:22:42;;;;;;;40.83;21.77;;;6.70;99.90;;;;;;5023987;28;20476;-70
2024/03/11 00:25:09;;;;;;;43.40;23.55;;;6.70;99.90;;;;;;4992379;28;20035;-70
2024/03/11 00:27:36;;;;;;;36.92;21.10;;;6.60;99.90;;;;;;5007883;28;20073;-70
2024/03/11 00:30:08;;;;;;;38.28;20.90;;;6.60;99.90;;;;;;4992445;28;20096;-70
2024/03/11 00:32:38;;;;;;;40.53;23.80;;;6.60;99.90;;;;;;4991358;28;20055;-70
2024/03/11 00:35:09;;;;;;;37.15;26.33;;;6.60;99.90;;;;;;5023591;28;20403;-70
2024/03/11 00:37:36;;;;;;;;;;;6.50;99.90;;;;;;5007351;28;20136;-69
2024/03/11 00:40:08;;;;;;;31.40;17.98;;;6.50;99.90;;;;;;4992272;28;19925;-70
2024/03/11 00:42:38;;;;;;;33.88;17.83;;;6.50;99.90;;;;;;4992439;28;20050;-70
2024/03/11 00:45:12;;;;;;;33.92;20.02;;;6.50;99.90;;;;;;4995796;28;20047;-70
2024/03/11 00:47:40;;;;;;;34.55;21.00;;;6.50;99.90;;;;;;4994666;28;20048;-70
2024/03/11 00:50:09;;;;;;;34.55;19.52;;;6.50;99.90;;;;;;4994752;28;20046;-70
2024/03/11 00:52:37;;;;;;;35.33;19.27;;;6.50;99.90;;;;;;4996195;28;20038;-70
2024/03/11 00:55:09;;;;;;;32.88;18.95;;;6.50;99.90;;;;;;4994391;28;20046;-70
2024/03/11 00:57:37;;;;;;;34.95;20.38;;;6.50;99.90;;;;;;5026578;28;20057;-69
2024/03/11 01:00:05;;;;;;;28.65;18.00;;;6.50;99.90;;;;;;5010720;28;20046;-70
2024/03/11 01:02:33;;;;;;;26.73;17.08;;;6.50;99.90;;;;;;4994593;28;20058;-70
2024/03/11 01:05:01;;;;;;;36.45;23.73;;;6.60;99.90;;;;;;5010907;28;20395;-70
2024/03/11 01:07:29;;;;;;;31.75;19.63;;;6.60;99.90;;;;;;4995783;28;20034;-70
2024/03/11 01:10:02;;;;;;;29.35;18.63;;;6.70;99.90;;;;;;5010293;28;20062;-70
2024/03/11 01:12:29;;;;;;;31.13;20.98;;;6.70;99.90;;;;;;5010475;28;20396;-70
2024/03/11 01:14:56;;;;;;;37.30;20.83;;;6.80;99.90;;;;;;4995442;28;20050;-70
2024/03/11 01:17:23;;;;;;;34.38;20.35;;;6.80;99.90;;;;;;4995349;28;20046;-70
2024/03/11 01:19:50;;;;;;;26.48;18.17;;;6.80;99.90;;;;;;5010480;28;20412;-70
2024/03/11 01:22:18;;;;;;;30.75;18.65;;;6.80;99.90;;;;;;4994292;28;20039;-70
2024/03/11 01:24:45;;;;;;;27.50;17.13;;;6.80;99.90;;;;;;4995580;28;20038;-70
2024/03/11 01:27:14;;;;;;;35.47;21.50;;;6.90;99.90;;;;;;4993885;28;20046;-70
2024/03/11 01:29:41;;;;;;;37.78;20.33;;;6.90;99.90;;;;;;4995543;28;20124;-70
2024/03/11 01:32:11;;;;;;;26.60;15.57;;;6.90;99.90;;;;;;4993772;28;20050;-70
2024/03/11 01:34:41;;;;;;;30.25;19.80;;;6.90;99.90;;;;;;4995247;28;20038;-70
2024/03/11 01:37:08;;;;;;;38.50;23.92;;;6.90;99.90;;;;;;4993894;28;20407;-70
2024/03/11 01:39:44;;;;;;;35.67;19.10;;;6.90;99.90;;;;;;4995392;28;20058;-70
2024/03/11 01:42:17;;;;;;;32.00;19.17;;;6.90;99.90;;;;;;4993767;28;20100;-70
2024/03/11 01:44:46;;;;;;;31.90;18.45;;;6.90;99.90;;;;;;5026600;28;20065;-70
2024/03/11 01:47:14;;;;;;;25.35;17.08;;;6.90;99.90;;;;;;4994869;28;20133;-70
2024/03/11 01:49:45;;;;;;;31.08;19.38;;;6.90;99.90;;;;;;5026774;28;20491;-70
2024/03/11 01:52:16;;;;;;;32.10;18.38;;;6.90;99.90;;;;;;4993531;28;20510;-70
2024/03/11 01:54:45;;;;;;;35.05;18.23;;;6.90;99.90;;;;;;5009548;28;20065;-70
2024/03/11 01:57:15;;;;;;;32.10;18.30;;;6.90;99.90;;;;;;5009634;28;20045;-70
2024/03/11 01:59:42;;;;;;;31.52;18.50;;;6.90;99.90;;;;;;4993544;28;20078;-70
2024/03/11 02:02:10;;;;;;;32.45;19.05;;;6.90;99.90;;;;;;5026041;28;20096;-70
2024/03/11 02:04:43;;;;;;;32.33;19.92;;;6.90;99.90;;;;;;4993461;28;20048;-70
2024/03/11 02:07:13;;;;;;;28.05;18.33;;;6.90;99.90;;;;;;5008402;28;20046;-70
2024/03/11 02:09:44;;;;;;;27.95;20.27;;;6.90;99.90;;;;;;4993410;28;20444;-70
2024/03/11 02:12:17;;;;;;;34.40;18.80;;;6.90;99.90;;;;;;5025833;28;20082;-70
2024/03/11 02:14:48;;;;;;;34.97;19.67;;;6.90;99.90;;;;;;4993303;28;20066;-70
2024/03/11 02:17:15;;;;;;;29.88;18.30;;;7.00;99.90;;;;;;4993026;28;20054;-70
2024/03/11 02:19:43;;;;;;;31.02;17.48;;;7.00;99.90;;;;;;4994402;28;20485;-70
2024/03/11 02:22:10;;;;;;;26.50;15.05;;;7.00;99.90;;;;;;5009256;28;20058;-70
2024/03/11 02:24:37;;;;;;;33.35;21.45;;;7.10;99.90;;;;;;4994422;28;20498;-71
2024/03/11 02:27:05;;;;;;;28.85;17.30;;;7.10;99.90;;;;;;4994231;28;20038;-70
2024/03/11 02:29:32;;;;;;;29.63;18.20;;;7.20;99.90;;;;;;4992753;28;20133;-70
2024/03/11 02:31:59;;;;;;;23.38;16.52;;;7.30;99.90;;;;;;4994051;28;20045;-70
2024/03/11 02:34:26;;;;;;;36.15;19.15;;;7.30;99.90;;;;;;5008954;28;20042;-70
2024/03/11 02:36:53;;;;;;;34.65;18.70;;;7.30;99.90;;;;;;4992781;28;20488;-70
2024/03/11 02:39:20;;;;;;;30.38;19.70;;;7.40;99.90;;;;;;4993773;28;20049;-70
2024/03/11 02:41:51;;;;;;;29.65;19.83;;;7.40;99.90;;;;;;4993898;28;20419;-70
2024/03/11 02:44:18;;;;;;;29.25;18.92;;;7.40;99.90;;;;;;4992298;28;20495;-70
2024/03/11 02:46:45;;;;;;;32.83;19.55;;;7.40;99.90;;;;;;5025137;28;20042;-70
2024/03/11 02:49:12;;;;;;;29.60;17.92;;;7.50;99.90;;;;;;5008816;28;20062;-70
2024/03/11 02:51:42;;;;;;;30.83;18.17;;;7.50;99.90;;;;;;5008986;28;20042;-71
2024/03/11 02:54:09;;;;;;;30.02;19.60;;;7.50;99.90;;;;;;5008481;28;20112;-70
2024/03/11 02:56:37;;;;;;;28.65;17.38;;;7.50;99.90;;;;;;4993589;28;20049;-70
2024/03/11 02:59:04;;;;;;;32.53;17.70;;;7.50;99.90;;;;;;4993685;28;20121;-70
2024/03/11 03:01:31;;;;;;;28.23;18.35;;;7.50;99.90;;;;;;5024416;28;20566;-70
2024/03/11 03:03:59;;;;;;;32.88;19.02;;;7.50;99.90;;;;;;4993764;28;20496;-70
2024/03/11 03:06:27;;;;;;;28.23;19.25;;;7.50;99.90;;;;;;4991495;28;20049;-70
2024/03/11 03:08:54;;;;;;;28.17;18.33;;;7.50;99.90;;;;;;5024409;28;20472;-70
2024/03/11 03:11:22;;;;;;;31.30;17.30;;;7.50;99.90;;;;;;4993189;28;20046;-70
2024/03/11 03:13:50;;;;;;;28.17;16.27;;;7.50;99.90;;;;;;5008334;28;20046;-70
2024/03/11 03:16:17;;;;;;;25.00;16.58;;;7.50;99.90;;;;;;4993581;28;20042;-70
2024/03/11 03:18:44;;;;;;;30.10;18.00;;;7.60;99.90;;;;;;4993496;28;20480;-70
2024/03/11 03:21:11;;;;;;;33.65;19.17;;;7.60;99.90;;;;;;5008484;28;20050;-70
2024/03/11 03:23:38;;;;;;;30.58;17.25;;;7.60;99.90;;;;;;4993022;28;20038;-70
2024/03/11 03:26:05;;;;;;;28.92;17.40;;;7.60;99.90;;;;;;4993222;28;20049;-70
2024/03/11 03:28:32;;;;;;;31.65;17.42;;;7.60;99.90;;;;;;5008026;28;20046;-70
2024/03/11 03:30:59;;;;;;;30.42;21.35;;;7.70;99.90;;;;;;5024621;28;20451;-70
2024/03/11 03:33:27;;;;;;;27.88;17.50;;;7.70;99.90;;;;;;5024321;28;20042;-70
2024/03/11 03:35:55;;;;;;;27.80;17.80;;;7.70;99.90;;;;;;5008096;28;20133;-69
2024/03/11 03:38:22;;;;;;;32.03;23.55;;;7.70;99.90;;;;;;4992925;28;20399;-70
2024/03/11 03:40:50;;;;;;;33.55;18.90;;;7.70;99.90;;;;;;5024355;28;20097;-70
2024/03/11 03:43:17;;;;;;;26.60;19.13;;;7.70;99.90;;;;;;5024408;28;20081;-70
2024/03/11 03:45:44;;;;;;;28.55;18.35;;;7.70;99.90;;;;;;5024234;28;20042;-70
2024/03/11 03:48:11;;;;;;;30.58;18.13;;;7.80;99.90;;;;;;5024211;28;20038;-70
2024/03/11 03:50:39;;;;;;;24.55;16.70;;;7.80;99.90;;;;;;5024132;28;20062;-70
2024/03/11 03:53:06;;;;;;;29.05;18.15;;;7.80;99.90;;;;;;4991770;28;20118;-70
2024/03/11 03:55:37;;;;;;;24.00;16.58;;;7.80;99.90;;;;;;4991377;28;20069;-70
2024/03/11 03:58:04;;;;;;;31.55;16.77;;;7.80;99.90;;;;;;4993052;28;20081;-70
2024/03/11 04:00:34;;;;;;;26.65;16.88;;;7.80;99.90;;;;;;4991244;28;20101;-70
2024/03/11 04:03:04;;;;;;;27.45;16.65;;;7.80;99.90;;;;;;4992247;28;20066;-70
2024/03/11 04:05:32;;;;;;;31.15;17.20;;;7.80;99.90;;;;;;5022252;28;20114;-70
2024/03/11 04:07:59;;;;;;;23.77;16.33;;;7.80;99.90;;;;;;4992568;28;20070;-70
2024/03/11 04:10:26;;;;;;;30.08;18.70;;;7.80;99.90;;;;;;4975357;28;20560;-70
2024/03/11 04:12:55;;;;;;;28.88;19.80;;;7.80;99.90;;;;;;5024598;28;20043;-70
2024/03/11 04:15:23;;;;;;;28.98;18.48;;;7.80;99.90;;;;;;4992777;28;20074;-70
2024/03/11 04:17:53;;;;;;;29.45;19.58;;;7.80;99.90;;;;;;4996039;28;20038;-70
2024/03/11 04:20:27;;;;;;;31.63;18.65;;;7.80;99.90;;;;;;4996629;28;20038;-70
2024/03/11 04:22:55;;;;;;;26.30;18.83;;;7.80;99.90;;;;;;4995675;28;20460;-70
2024/03/11 04:25:28;;;;;;;29.38;17.90;;;7.70;99.90;;;;;;4996625;28;20042;-70
2024/03/11 04:27:56;;;;;;;24.45;16.42;;;7.70;99.90;;;;;;4995009;28;20061;-70
2024/03/11 04:30:35;;;;;;;28.30;18.42;;;7.60;99.90;;;;;;4996431;28;20042;-69
2024/03/11 04:33:03;;;;;;;29.45;16.45;;;7.60;99.90;;;;;;4995337;28;20046;-70
2024/03/11 04:35:33;;;;;;;27.83;17.15;;;7.60;99.90;;;;;;4996109;28;20043;-70
2024/03/11 04:38:03;;;;;;;28.38;18.60;;;7.60;99.90;;;;;;4995043;28;20126;-70
2024/03/11 04:40:32;;;;;;;25.00;14.48;;;7.50;99.90;;;;;;4996120;28;20117;-70
2024/03/11 04:43:00;;;;;;;27.45;16.85;;;7.50;99.90;;;;;;4996083;28;20058;-70
2024/03/11 04:45:28;;;;;;;30.13;18.30;;;7.50;99.90;;;;;;4996175;28;20039;-70
2024/03/11 04:47:58;;;;;;;25.42;15.45;;;7.50;99.90;;;;;;5011154;28;20050;-70
2024/03/11 04:50:30;;;;;;;30.52;19.98;;;7.50;99.90;;;;;;4996200;28;20066;-70
2024/03/11 04:53:03;;;;;;;28.83;17.85;;;7.50;99.90;;;;;;5027676;28;20136;-70
2024/03/11 04:55:31;;;;;;;28.38;16.35;;;7.50;99.90;;;;;;4996121;28;20039;-70
2024/03/11 04:57:59;;;;;;;26.23;16.95;;;7.50;99.90;;;;;;4995918;28;20042;-69
2024/03/11 05:00:28;;;;;;;32.38;19.92;;;7.60;99.90;;;;;;4995983;28;20373;-70
2024/03/11 05:02:59;;;;;;;29.20;17.52;;;7.60;99.90;;;;;;4995933;28;20089;-70
2024/03/11 05:05:29;;;;;;;27.50;18.27;;;7.60;99.90;;;;;;4994556;28;20054;-70
2024/03/11 05:07:57;;;;;;;30.00;17.05;;;7.60;99.90;;;;;;4994283;28;20062;-70
2024/03/11 05:10:24;;;;;;;24.92;17.33;;;7.60;99.90;;;;;;4996032;28;20093;-70
2024/03/11 05:12:51;;;;;;;25.30;15.93;;;7.60;99.90;;;;;;4995464;28;20045;-69
2024/03/11 05:15:18;;;;;;;28.65;17.20;;;7.60;99.90;;;;;;4994442;28;20101;-70
2024/03/11 05:17:46;;;;;;;29.60;18.98;;;7.60;99.90;;;;;;4995421;28;20047;-70
2024/03/11 05:20:15;;;;;;;28.08;17.73;;;7.60;99.90;;;;;;4994356;28;20052;-70
2024/03/11 05:22:44;;;;;;;27.63;20.25;;;7.60;99.90;;;;;;4995272;28;20377;-70
2024/03/11 05:25:12;;;;;;;31.17;19.17;;;7.60;99.90;;;;;;4995590;28;20044;-70
2024/03/11 05:27:40;;;;;;;26.88;16.75;;;7.50;99.90;;;;;;4977201;28;20066;-70
2024/03/11 05:30:08;;;;;;;26.10;14.50;;;7.50;99.90;;;;;;4994250;28;20472;-70
2024/03/11 05:32:35;;;;;;;32.30;17.38;;;7.50;99.90;;;;;;4995386;28;20046;-70
2024/03/11 05:35:02;;;;;;;33.63;18.05;;;7.40;99.90;;;;;;5010228;28;20069;-70
2024/03/11 05:37:29;;;;;;;25.27;14.80;;;7.40;99.90;;;;;;4994079;28;20118;-70
2024/03/11 05:39:59;;;;;;;28.65;18.77;;;7.40;99.90;;;;;;4977819;28;20407;-70
2024/03/11 05:42:26;;;;;;;30.00;16.83;;;7.40;99.90;;;;;;4994120;28;20050;-70
2024/03/11 05:44:55;;;;;;;32.55;24.15;;;7.40;99.90;;;;;;4993424;28;20085;-70
2024/03/11 05:47:25;;;;;;;28.85;18.83;;;7.40;99.90;;;;;;4978249;28;20038;-70
2024/03/11 05:49:54;;;;;;;32.50;18.58;;;7.40;99.90;;;;;;4995105;28;20048;-70
2024/03/11 05:52:24;;;;;;;33.35;17.02;;;7.40;99.90;;;;;;4993608;28;20061;-70
2024/03/11 05:54:53;;;;;;;28.20;16.40;;;7.30;99.90;;;;;;5026169;28;20052;-70
2024/03/11 05:57:26;;;;;;;28.55;17.83;;;7.30;99.90;;;;;;4977656;28;20054;-70
2024/03/11 05:59:53;;;;;;;26.25;14.50;;;7.30;99.90;;;;;;5009596;28;20058;-70
2024/03/11 06:02:20;;;;;;;23.08;14.98;;;7.30;99.90;;;;;;4993112;28;20049;-70
2024/03/11 06:04:48;;;;;;;29.00;18.20;;;7.20;99.90;;;;;;5002252;28;20046;-70
2024/03/11 06:07:28;;;;;;;27.92;19.40;;;7.20;99.90;;;;;;4994622;28;20043;-70
2024/03/11 06:09:55;;;;;;;27.52;16.33;;;7.20;99.90;;;;;;5025556;28;20046;-70
2024/03/11 06:12:22;;;;;;;16.88;10.98;;;7.10;99.90;;;;;;4993292;28;20046;-70
2024/03/11 06:14:51;;;;;;;25.45;16.50;;;7.20;99.90;;;;;;5009354;28;20046;-70
2024/03/11 06:17:18;;;;;;;29.45;16.27;;;7.20;99.90;;;;;;5025392;28;20484;-70
2024/03/11 06:19:46;;;;;;;28.25;16.83;;;7.20;99.90;;;;;;5008993;28;20144;-70
2024/03/11 06:22:15;;;;;;;25.90;16.92;;;7.20;99.90;;;;;;4994409;28;20049;-70
2024/03/11 06:24:43;;;;;;;30.35;16.63;;;7.20;99.90;;;;;;4994343;28;20053;-70
2024/03/11 06:27:11;;;;;;;29.70;18.92;;;7.20;99.90;;;;;;4992819;28;20412;-70
2024/03/11 06:29:38;;;;;;;27.98;16.10;;;7.20;99.90;;;;;;4994248;28;20049;-70
2024/03/11 06:32:07;;;;;;;29.35;17.90;;;7.20;99.90;;;;;;5024986;28;20085;-70
2024/03/11 06:34:34;;;;;;;29.13;18.90;;;7.20;99.90;;;;;;5009452;28;20407;-70
2024/03/11 06:37:02;;;;;;;30.73;21.95;;;7.20;99.90;;;;;;4993885;28;20402;-70
2024/03/11 06:39:31;;;;;;;25.40;18.55;;;7.20;99.90;;;;;;4993903;28;20514;-70
2024/03/11 06:42:00;;;;;;;19.90;11.43;;;7.20;99.90;;;;;;4993732;28;20104;-69
2024/03/11 06:44:27;;;;;;;27.00;16.70;;;7.20;99.90;;;;;;5022830;28;20089;-70
2024/03/11 06:46:59;;;;;;;29.02;17.88;;;7.30;99.90;;;;;;4992236;28;20101;-69
2024/03/11 06:49:26;;;;;;;20.77;12.13;;;7.30;99.90;;;;;;4993745;28;20053;-70
2024/03/11 06:51:53;;;;;;;28.65;18.48;;;7.30;99.90;;;;;;4993622;28;20126;-70
2024/03/11 06:54:20;;;;;;;28.23;17.30;;;7.30;99.90;;;;;;4992401;28;20042;-69
2024/03/11 06:56:47;;;;;;;28.92;16.58;;;7.40;99.90;;;;;;5024589;28;20048;-70
2024/03/11 06:59:14;;;;;;;31.30;19.10;;;7.40;99.90;;;;;;4993638;28;20380;-69
2024/03/11 07:01:41;;;;;;;28.55;15.25;;;7.40;99.90;;;;;;5024835;28;20093;-69
2024/03/11 07:04:09;;;;;;;25.50;17.95;;;7.40;99.90;;;;;;5008380;28;20593;-70
2024/03/11 07:06:39;;;;;;;27.40;16.98;;;7.40;99.90;;;;;;5025020;28;20049;-70
2024/03/11 07:09:07;;;;;;;23.40;14.43;;;7.40;99.90;;;;;;5007979;28;20038;-70
2024/03/11 07:11:34;;;;;;;28.08;16.25;;;7.40;99.90;;;;;;4992265;28;20046;-70
2024/03/11 07:14:02;;;;;;;25.25;16.85;;;7.50;99.90;;;;;;5008053;28;20376;-70
2024/03/11 07:16:31;;;;;;;30.15;18.27;;;7.50;99.90;;;;;;5024416;28;20491;-70
2024/03/11 07:18:59;;;;;;;28.40;17.40;;;7.50;99.90;;;;;;5008130;28;20089;-70
2024/03/11 07:21:28;;;;;;;25.80;15.70;;;7.50;99.90;;;;;;4993451;28;20567;-70
2024/03/11 07:23:55;;;;;;;26.35;15.75;;;7.50;99.90;;;;;;4991665;28;20042;-70
2024/03/11 07:26:23;;;;;;;24.10;14.80;;;7.60;99.90;;;;;;5008108;28;20039;-70
2024/03/11 07:28:50;;;;;;;26.40;16.20;;;7.60;99.90;;;;;;5008404;28;20476;-70
2024/03/11 07:31:17;;;;;;;25.08;16.13;;;7.70;99.90;;;;;;4993174;28;20038;-70
2024/03/11 07:33:48;;;;;;;27.52;15.25;;;7.70;99.90;;;;;;5008296;28;20058;-70
2024/03/11 07:36:16;;;;;;;28.20;15.50;;;7.80;99.90;;;;;;4992912;28;20049;-70
2024/03/11 07:38:43;;;;;;;30.05;16.48;;;7.80;99.90;;;;;;4992985;28;20101;-70
2024/03/11 07:41:11;;;;;;;26.55;16.65;;;7.90;99.90;;;;;;4991904;28;20038;-70
2024/03/11 07:43:38;;;;;;;29.85;16.48;;;7.90;99.90;;;;;;5007730;28;20058;-70
2024/03/11 07:46:05;;;;;;;25.38;15.15;;;7.90;99.90;;;;;;4991383;28;20054;-70
2024/03/11 07:48:33;;;;;;;27.15;15.65;;;7.90;99.90;;;;;;4991543;28;20045;-70
2024/03/11 07:51:01;;;;;;;23.60;14.77;;;7.90;99.90;;;;;;4993148;28;20046;-71
2024/03/11 07:53:28;;;;;;;24.35;14.90;;;8.00;99.90;;;;;;4998147;28;20046;-70
2024/03/11 07:55:55;;;;;;;24.65;15.65;;;8.00;99.90;;;;;;4997849;28;20067;-70
2024/03/11 07:58:22;;;;;;;26.77;17.13;;;8.00;99.90;;;;;;4999371;28;20404;-70
2024/03/11 08:00:49;;;;;;;22.63;14.88;;;8.00;99.90;;;;;;5014323;28;20488;-70
2024/03/11 08:03:19;;;;;;;28.10;15.57;;;8.10;99.90;;;;;;4999129;28;20511;-70
2024/03/11 08:05:46;;;;;;;22.10;13.77;;;8.10;99.90;;;;;;5014295;28;20070;-70
2024/03/11 08:08:15;;;;;;;24.60;14.45;;;8.20;99.90;;;;;;4997722;28;20050;-70
2024/03/11 08:10:42;;;;;;;23.48;16.05;;;8.30;99.90;;;;;;5014530;28;20038;-70
2024/03/11 08:13:11;;;;;;;21.65;13.80;;;8.30;99.90;;;;;;4997786;28;20042;-70
2024/03/11 08:15:39;;;;;;;17.65;10.93;;;8.30;99.90;;;;;;4999067;28;20049;-70
2024/03/11 08:18:07;;;;;;;22.83;14.23;;;8.20;99.90;;;;;;5030143;28;20050;-70
2024/03/11 08:20:34;;;;;;;25.00;14.68;;;8.20;99.90;;;;;;4997885;28;20047;-70
2024/03/11 08:23:01;;;;;;;23.38;13.90;;;8.10;99.90;;;;;;4997725;28;20046;-71
2024/03/11 08:25:31;;;;;;;24.42;15.55;;;8.00;99.90;;;;;;4998985;28;20050;-70
2024/03/11 08:27:58;;;;;;;22.50;14.70;;;7.90;99.90;;;;;;4997798;28;20057;-71
2024/03/11 08:30:27;;;;;;;22.10;14.23;;;7.90;99.90;;;;;;4999071;28;20053;-70
2024/03/11 08:32:56;;;;;;;21.67;14.68;;;7.80;99.90;;;;;;5013996;28;20038;-71
2024/03/11 08:35:24;;;;;;;27.60;15.18;;;7.80;99.90;;;;;;4997670;28;20487;-71
2024/03/11 08:37:52;;;;;;;28.52;16.45;;;7.70;99.90;;;;;;5030197;28;20056;-71
2024/03/11 08:40:21;;;;;;;28.00;17.42;;;7.70;99.90;;;;;;5014031;28;20389;-71
2024/03/11 08:42:50;;;;;;;28.52;17.40;;;7.70;99.90;;;;;;4997508;28;20085;-71
2024/03/11 08:45:22;;;;;;;27.92;15.80;;;7.70;99.90;;;;;;4998651;28;20042;-71
2024/03/11 08:47:50;;;;;;;31.45;18.38;;;7.60;99.90;;;;;;5030236;28;20392;-71
2024/03/11 08:50:27;;;;;;;26.40;16.02;;;7.60;99.90;;;;;;4997651;28;20506;-71
2024/03/11 08:52:54;;;;;;;28.17;16.23;;;7.60;99.90;;;;;;4997630;28;20110;-71
2024/03/11 08:55:22;;;;;;;26.52;16.55;;;7.60;99.90;;;;;;4998706;28;20117;-71
2024/03/11 08:57:49;;;;;;;54.20;44.33;;;7.60;99.90;;;;;;5030726;28;20048;-71
2024/03/11 09:00:17;;;;;;;33.70;22.48;;;7.60;99.90;;;;;;4998639;28;20096;-71
2024/03/11 09:02:45;;;;;;;28.55;18.88;;;7.70;99.90;;;;;;5011216;28;20416;-71
2024/03/11 09:05:13;;;;;;;27.25;17.80;;;7.70;99.90;;;;;;5010287;28;20042;-71
2024/03/11 09:07:40;;;;;;;34.30;19.20;;;7.80;99.90;;;;;;5010407;28;20105;-71
2024/03/11 09:10:09;;;;;;;35.20;23.70;;;7.90;99.90;;;;;;5027017;28;20046;-71
2024/03/11 09:12:40;;;;;;;33.15;27.67;;;7.90;99.90;;;;;;4994205;28;20042;-71
2024/03/11 09:15:15;;;;;;;27.67;17.08;;;7.90;99.90;;;;;;4995414;28;20046;-71
2024/03/11 09:17:46;;;;;;;30.60;26.77;;;7.90;99.90;;;;;;4994209;28;20407;-71
2024/03/11 09:20:17;;;;;;;28.88;18.50;;;7.90;99.90;;;;;;4995468;28;20049;-71
2024/03/11 09:22:52;;;;;;;27.20;15.48;;;7.80;99.90;;;;;;4995389;28;20089;-71
2024/03/11 09:25:24;;;;;;;29.70;17.55;;;7.80;99.90;;;;;;4993846;28;20054;-71
2024/03/11 09:27:54;;;;;;;35.65;27.85;;;7.80;99.90;;;;;;5010470;28;20042;-71
2024/03/11 09:30:21;;;;;;;28.30;17.52;;;7.80;99.90;;;;;;4995108;28;20125;-71
2024/03/11 09:32:50;;;;;;;27.23;19.00;;;7.90;99.90;;;;;;4993991;28;20463;-71
2024/03/11 09:35:18;;;;;;;25.95;17.80;;;7.90;99.90;;;;;;4993836;28;20090;-71
2024/03/11 09:37:52;;;;;;;26.60;14.85;;;7.90;99.90;;;;;;4995177;28;20050;-71
2024/03/11 09:40:26;;;;;;;24.60;15.73;;;8.00;99.90;;;;;;4993757;28;20132;-72
2024/03/11 09:42:55;;;;;;;26.23;16.77;;;8.00;99.90;;;;;;4993770;28;20050;-71
2024/03/11 09:45:26;;;;;;;23.77;16.17;;;8.00;99.90;;;;;;4993568;28;20038;-71
2024/03/11 09:47:56;;;;;;;;;;;8.10;99.90;;;;;;5010296;28;20113;-72
2024/03/11 09:50:26;;;;;;;23.10;14.68;;;8.10;99.90;;;;;;5009792;28;20418;-71
2024/03/11 09:53:02;;;;;;;24.70;15.30;;;8.10;99.90;;;;;;4993701;28;20042;-71
2024/03/11 09:55:36;;;;;;;25.45;15.73;;;8.20;99.90;;;;;;5025061;28;20484;-71
2024/03/11 09:58:06;;;;;;;26.73;15.77;;;8.30;99.90;;;;;;4994851;28;20146;-71
2024/03/11 10:00:35;;;;;;;28.20;16.08;;;8.40;99.90;;;;;;5009252;28;20046;-71
2024/03/11 10:03:06;;;;;;;28.25;16.55;;;8.50;99.90;;;;;;5025098;28;20465;-71
2024/03/11 10:05:33;;;;;;;27.17;18.13;;;8.50;99.90;;;;;;5009292;28;20465;-71
2024/03/11 10:08:01;;;;;;;24.77;20.17;;;8.50;99.90;;;;;;5009534;28;20403;-71
2024/03/11 10:10:29;;;;;;;23.80;14.82;;;8.50;99.90;;;;;;4994596;28;20089;-71
2024/03/11 10:13:04;;;;;;;26.00;17.40;;;8.50;99.90;;;;;;4993160;28;20144;-71
2024/03/11 10:15:32;;;;;;;27.30;16.13;;;8.50;99.90;;;;;;5007911;28;20096;-71
2024/03/11 10:18:09;;;;;;;21.25;13.93;;;8.50;99.90;;;;;;5009760;28;20141;-71
2024/03/11 10:20:37;;;;;;;26.85;15.40;;;8.50;99.90;;;;;;4994226;28;20046;-71
2024/03/11 10:23:09;;;;;;;22.17;15.32;;;8.50;99.90;;;;;;4992999;28;20054;-71
2024/03/11 10:25:40;;;;;;;23.67;16.92;;;8.60;99.90;;;;;;5023765;28;20399;-71
2024/03/11 10:28:07;;;;;;;23.30;15.48;;;8.60;99.90;;;;;;5009257;28;20084;-71
2024/03/11 10:30:34;;;;;;;26.23;16.42;;;8.70;99.90;;;;;;5008220;28;20038;-71
2024/03/11 10:33:02;;;;;;;24.38;15.52;;;9.00;99.90;;;;;;5009160;28;20043;-71
2024/03/11 10:35:39;;;;;;;24.85;15.38;;;9.20;99.90;;;;;;4993948;28;20034;-71
2024/03/11 10:38:10;;;;;;;23.10;14.70;;;9.50;99.90;;;;;;5009080;28;20053;-71
2024/03/11 10:40:41;;;;;;;24.88;15.68;;;9.90;99.90;;;;;;4993913;28;20089;-71
2024/03/11 10:43:20;;;;;;;23.63;17.42;;;10.50;99.90;;;;;;5008218;28;20500;-71
2024/03/11 10:45:50;;;;;;;19.38;13.63;;;11.40;99.90;;;;;;5008623;28;20061;-73
2024/03/11 10:48:17;;;;;;;20.73;14.82;;;12.10;99.90;;;;;;5024075;28;20038;-70
2024/03/11 10:50:45;;;;;;;18.15;12.40;;;12.60;99.90;;;;;;4993743;28;20062;-71
2024/03/11 10:53:21;;;;;;;21.50;14.52;;;12.90;99.90;;;;;;4992472;28;20050;-71
2024/03/11 10:55:58;;;;;;;17.00;12.25;;;12.90;99.90;;;;;;4992579;28;20050;-71
2024/03/11 10:58:25;;;;;;;21.10;13.52;;;12.70;99.80;;;;;;5023439;28;20054;-71
2024/03/11 11:01:00;;;;;;;16.98;12.63;;;12.40;99.50;;;;;;4976351;28;20053;-71
2024/03/11 11:03:31;;;;;;;20.80;15.13;;;12.10;99.90;;;;;;5008456;28;20471;-71
2024/03/11 11:06:09;;;;;;;23.45;14.68;;;11.90;99.90;;;;;;4993620;28;20042;-71
2024/03/11 11:08:37;;;;;;;20.65;13.52;;;11.80;99.90;;;;;;5008297;28;20129;-71
2024/03/11 11:11:06;;;;;;;20.95;14.38;;;11.90;99.90;;;;;;5008538;28;20057;-71
2024/03/11 11:13:36;;;;;;;20.50;16.30;;;12.10;99.90;;;;;;4992084;28;20483;-70
2024/03/11 11:16:07;;;;;;;26.90;15.90;;;12.30;99.90;;;;;;4993533;28;20057;-70
2024/03/11 11:18:39;;;;;;;22.13;15.23;;;12.40;99.90;;;;;;4993301;28;20077;-70
2024/03/11 11:21:10;;;;;;;23.42;17.17;;;12.40;99.90;;;;;;4992140;28;20403;-70
2024/03/11 11:23:38;;;;;;;21.27;14.25;;;12.30;99.40;;;;;;4993313;28;20078;-70
2024/03/11 11:26:06;;;;;;;22.77;16.40;;;12.30;99.60;;;;;;4992603;28;20038;-70
2024/03/11 11:28:37;;;;;;;21.33;17.73;;;12.20;99.30;;;;;;5023865;28;20115;-70
2024/03/11 11:31:12;;;;;;;23.35;15.65;;;12.10;99.40;;;;;;4993478;28;20054;-71
2024/03/11 11:33:58;;;;;;;20.50;14.43;;;12.10;99.00;;;;;;4993096;28;20034;-70
2024/03/11 11:36:32;;;;;;;22.73;15.02;;;12.00;99.30;;;;;;5007912;28;20129;-70
2024/03/11 11:39:27;;;;;;;21.73;15.88;;;11.90;99.30;;;;;;4993124;28;20038;-70
2024/03/11 11:41:57;;;;;;;22.60;15.45;;;12.00;99.20;;;;;;4994770;28;20142;-70
2024/03/11 11:44:27;;;;;;;22.38;14.57;;;12.20;99.60;;;;;;5021188;28;20109;-70
2024/03/11 11:47:01;;;;;;;22.40;13.98;;;12.40;99.00;;;;;;5007926;28;20054;-70
2024/03/11 11:49:34;;;;;;;21.25;17.08;;;12.60;99.00;;;;;;5007409;28;20399;-70
2024/03/11 11:52:02;;;;;;;24.27;16.45;;;12.80;98.70;;;;;;5008140;28;20052;-71
2024/03/11 11:54:34;;;;;;;22.27;16.10;;;13.00;99.00;;;;;;5007961;28;20046;-71
2024/03/11 11:57:06;;;;;;;20.90;15.80;;;13.20;98.30;;;;;;5007871;28;20096;-70
2024/03/11 11:59:36;;;;;;;24.05;14.90;;;13.20;98.20;;;;;;5007833;28;20061;-70
2024/03/11 12:02:05;;;;;;;14.73;10.15;;;13.10;97.80;;;;;;4991768;28;20046;-70
2024/03/11 12:04:35;;;;;;;22.05;14.50;;;12.80;97.40;;;;;;4992741;28;20049;-71
2024/03/11 12:07:03;;;;;;;24.08;17.73;;;12.50;98.50;;;;;;4991736;28;20377;-70
2024/03/11 12:09:33;;;;;;;20.48;13.20;;;12.40;98.80;;;;;;5007732;28;20085;-70
2024/03/11 12:12:01;;;;;;;20.75;14.20;;;12.20;98.70;;;;;;5008095;28;20053;-70
2024/03/11 12:14:30;;;;;;;23.48;15.85;;;12.10;98.80;;;;;;4992745;28;20045;-70
2024/03/11 12:17:04;;;;;;;23.92;17.38;;;11.90;98.50;;;;;;5008268;28;20456;-70
2024/03/11 12:19:32;;;;;;;24.13;16.02;;;11.70;98.50;;;;;;5007470;28;20046;-71
2024/03/11 12:21:59;;;;;;;24.17;16.50;;;11.50;98.90;;;;;;5007442;28;20050;-70
2024/03/11 12:24:27;;;;;;;25.63;16.88;;;11.40;99.00;;;;;;4992671;28;20046;-70
2024/03/11 12:26:56;;;;;;;23.23;16.30;;;11.40;99.10;;;;;;4992731;28;20042;-70
2024/03/11 12:29:23;;;;;;;22.83;15.85;;;11.30;99.40;;;;;;5007413;28;20054;-70
2024/03/11 12:31:56;;;;;;;27.25;16.58;;;11.30;99.50;;;;;;5023753;28;20488;-70
2024/03/11 12:34:24;;;;;;;28.60;18.30;;;11.40;99.70;;;;;;4991385;28;20051;-70
2024/03/11 12:36:54;;;;;;;28.33;17.85;;;11.50;99.80;;;;;;4991286;28;20137;-70
2024/03/11 12:39:33;;;;;;;26.02;17.83;;;11.60;99.40;;;;;;5027219;28;20108;-70
2024/03/11 12:42:01;;;;;;;30.05;18.30;;;11.50;99.60;;;;;;4996314;28;20038;-70
2024/03/11 12:44:31;;;;;;;25.38;17.45;;;11.60;99.60;;;;;;5011257;28;20054;-70